sensor_id;sensor_type;location;lat;lon;timestamp;P1;durP1;ratioP1;P2;durP2;ratioP2
56173;SDS011;42058;52.308;20.924;2024-02-21T00:02:19;15.10;;;3.90;;
56173;SDS011;42058;52.308;20.924;2024-02-21T00:04:47;11.50;;;3.90;;
56173;SDS011;42058;52.308;20.924;2024-02-21T00:07:15;15.90;;;4.70;;
56173;SDS011;42058;52.308;20.924;2024-02-21T00:09:43;10.60;;;3.70;;
56173;SDS011;42058;52.308;20.924;2024-02-21T00:12:11;21.20;;;4.10;;
56173;SDS011;42058;52.308;20.924;2024-02-21T00:14:41;14.80;;;4.20;;
56173;SDS011;42058;52.308;20.924;2024-02-21T00:17:09;17.80;;;4.90;;
56173;SDS011;42058;52.308;20.924;2024-02-21T00:19:36;12.80;;;3.70;;
56173;SDS011;42058;52.308;20.924;2024-02-21T00:22:04;10.90;;;4.20;;
56173;SDS011;42058;52.308;20.924;2024-02-21T00:24:32;11.70;;;4.00;;
56173;SDS011;42058;52.308;20.924;2024-02-21T00:26:59;12.90;;;4.20;;
56173;SDS011;42058;52.308;20.924;2024-02-21T00:29:27;13.30;;;3.90;;
56173;SDS011;42058;52.308;20.924;2024-02-21T00:31:55;18.60;;;4.20;;
56173;SDS011;42058;52.308;20.924;2024-02-21T00:34:23;8.90;;;4.10;;
56173;SDS011;42058;52.308;20.924;2024-02-21T00:36:50;10.30;;;4.10;;
56173;SDS011;42058;52.308;20.924;2024-02-21T00:39:18;10.70;;;4.00;;
56173;SDS011;42058;52.308;20.924;2024-02-21T00:41:46;13.90;;;4.00;;
56173;SDS011;42058;52.308;20.924;2024-02-21T00:44:14;11.70;;;4.30;;
56173;SDS011;42058;52.308;20.924;2024-02-21T00:46:41;14.50;;;4.40;;
56173;SDS011;42058;52.308;20.924;2024-02-21T00:49:09;16.60;;;4.70;;
56173;SDS011;42058;52.308;20.924;2024-02-21T00:51:37;18.10;;;4.80;;
56173;SDS011;42058;52.308;20.924;2024-02-21T00:54:06;15.90;;;4.40;;
56173;SDS011;42058;52.308;20.924;2024-02-21T00:56:33;17.50;;;5.10;;
56173;SDS011;42058;52.308;20.924;2024-02-21T00:59:01;15.10;;;5.00;;
56173;SDS011;42058;52.308;20.924;2024-02-21T01:01:29;11.60;;;4.70;;
56173;SDS011;42058;52.308;20.924;2024-02-21T01:03:57;19.90;;;5.50;;
56173;SDS011;42058;52.308;20.924;2024-02-21T01:06:25;10.90;;;4.10;;
56173;SDS011;42058;52.308;20.924;2024-02-21T01:08:53;20.80;;;6.10;;
56173;SDS011;42058;52.308;20.924;2024-02-21T01:11:21;13.80;;;5.40;;
56173;SDS011;42058;52.308;20.924;2024-02-21T01:13:48;14.50;;;5.00;;
56173;SDS011;42058;52.308;20.924;2024-02-21T01:16:16;16.50;;;5.00;;
56173;SDS011;42058;52.308;20.924;2024-02-21T01:18:44;19.10;;;6.10;;
56173;SDS011;42058;52.308;20.924;2024-02-21T01:21:12;21.10;;;5.70;;
56173;SDS011;42058;52.308;20.924;2024-02-21T01:23:39;18.00;;;5.20;;
56173;SDS011;42058;52.308;20.924;2024-02-21T01:26:07;26.20;;;6.60;;
56173;SDS011;42058;52.308;20.924;2024-02-21T01:28:35;21.50;;;6.50;;
56173;SDS011;42058;52.308;20.924;2024-02-21T01:31:04;16.30;;;5.90;;
56173;SDS011;42058;52.308;20.924;2024-02-21T01:33:32;25.60;;;6.10;;
56173;SDS011;42058;52.308;20.924;2024-02-21T01:36:02;15.30;;;6.30;;
56173;SDS011;42058;52.308;20.924;2024-02-21T01:38:30;19.20;;;6.10;;
56173;SDS011;42058;52.308;20.924;2024-02-21T01:40:59;18.10;;;6.00;;
56173;SDS011;42058;52.308;20.924;2024-02-21T01:43:27;20.20;;;6.30;;
56173;SDS011;42058;52.308;20.924;2024-02-21T01:45:55;16.10;;;5.90;;
56173;SDS011;42058;52.308;20.924;2024-02-21T01:48:23;16.00;;;6.10;;
56173;SDS011;42058;52.308;20.924;2024-02-21T01:50:53;16.70;;;6.00;;
56173;SDS011;42058;52.308;20.924;2024-02-21T01:53:26;21.20;;;6.70;;
56173;SDS011;42058;52.308;20.924;2024-02-21T01:55:57;16.40;;;6.30;;
56173;SDS011;42058;52.308;20.924;2024-02-21T01:58:25;19.00;;;6.30;;
56173;SDS011;42058;52.308;20.924;2024-02-21T02:00:53;22.20;;;6.40;;
56173;SDS011;42058;52.308;20.924;2024-02-21T02:03:24;22.10;;;6.20;;
56173;SDS011;42058;52.308;20.924;2024-02-21T02:05:53;15.90;;;6.10;;
56173;SDS011;42058;52.308;20.924;2024-02-21T02:08:20;16.20;;;7.10;;
56173;SDS011;42058;52.308;20.924;2024-02-21T02:10:51;16.10;;;6.20;;
56173;SDS011;42058;52.308;20.924;2024-02-21T02:13:19;17.50;;;7.90;;
56173;SDS011;42058;52.308;20.924;2024-02-21T02:15:48;21.50;;;6.60;;
56173;SDS011;42058;52.308;20.924;2024-02-21T02:18:17;18.00;;;6.30;;
56173;SDS011;42058;52.308;20.924;2024-02-21T02:20:46;21.90;;;6.90;;
56173;SDS011;42058;52.308;20.924;2024-02-21T02:25:58;18.00;;;6.60;;
56173;SDS011;42058;52.308;20.924;2024-02-21T02:28:28;15.20;;;6.40;;
56173;SDS011;42058;52.308;20.924;2024-02-21T02:30:56;17.90;;;6.50;;
56173;SDS011;42058;52.308;20.924;2024-02-21T02:33:24;15.80;;;6.60;;
56173;SDS011;42058;52.308;20.924;2024-02-21T02:35:51;14.00;;;6.60;;
56173;SDS011;42058;52.308;20.924;2024-02-21T02:38:19;16.70;;;6.50;;
56173;SDS011;42058;52.308;20.924;2024-02-21T02:40:47;24.40;;;6.70;;
56173;SDS011;42058;52.308;20.924;2024-02-21T02:43:16;19.60;;;6.50;;
56173;SDS011;42058;52.308;20.924;2024-02-21T02:45:44;30.50;;;7.70;;
56173;SDS011;42058;52.308;20.924;2024-02-21T02:48:11;25.20;;;8.30;;
56173;SDS011;42058;52.308;20.924;2024-02-21T02:50:39;24.10;;;7.90;;
56173;SDS011;42058;52.308;20.924;2024-02-21T02:53:07;21.70;;;7.30;;
56173;SDS011;42058;52.308;20.924;2024-02-21T02:55:35;21.20;;;7.20;;
56173;SDS011;42058;52.308;20.924;2024-02-21T02:58:03;17.20;;;7.40;;
56173;SDS011;42058;52.308;20.924;2024-02-21T03:00:31;22.00;;;7.20;;
56173;SDS011;42058;52.308;20.924;2024-02-21T03:02:59;16.40;;;7.70;;
56173;SDS011;42058;52.308;20.924;2024-02-21T03:05:26;19.80;;;7.30;;
56173;SDS011;42058;52.308;20.924;2024-02-21T03:07:54;17.80;;;7.90;;
56173;SDS011;42058;52.308;20.924;2024-02-21T03:10:22;16.30;;;7.20;;
56173;SDS011;42058;52.308;20.924;2024-02-21T03:12:50;20.80;;;7.70;;
56173;SDS011;42058;52.308;20.924;2024-02-21T03:15:20;24.80;;;8.80;;
56173;SDS011;42058;52.308;20.924;2024-02-21T03:17:48;18.70;;;8.30;;
56173;SDS011;42058;52.308;20.924;2024-02-21T03:20:15;21.40;;;8.40;;
56173;SDS011;42058;52.308;20.924;2024-02-21T03:22:43;20.20;;;8.10;;
56173;SDS011;42058;52.308;20.924;2024-02-21T03:25:11;22.80;;;9.00;;
56173;SDS011;42058;52.308;20.924;2024-02-21T03:27:40;19.50;;;7.70;;
56173;SDS011;42058;52.308;20.924;2024-02-21T03:30:07;23.80;;;9.10;;
56173;SDS011;42058;52.308;20.924;2024-02-21T03:32:35;19.60;;;8.00;;
56173;SDS011;42058;52.308;20.924;2024-02-21T03:35:03;21.70;;;8.00;;
56173;SDS011;42058;52.308;20.924;2024-02-21T03:37:31;19.00;;;8.50;;
56173;SDS011;42058;52.308;20.924;2024-02-21T03:39:59;23.80;;;8.40;;
56173;SDS011;42058;52.308;20.924;2024-02-21T03:42:29;17.50;;;6.90;;
56173;SDS011;42058;52.308;20.924;2024-02-21T03:44:58;16.40;;;7.40;;
56173;SDS011;42058;52.308;20.924;2024-02-21T03:47:26;21.90;;;8.20;;
56173;SDS011;42058;52.308;20.924;2024-02-21T03:49:54;16.30;;;7.90;;
56173;SDS011;42058;52.308;20.924;2024-02-21T03:52:22;25.40;;;8.30;;
56173;SDS011;42058;52.308;20.924;2024-02-21T03:54:50;20.40;;;7.80;;
56173;SDS011;42058;52.308;20.924;2024-02-21T03:57:17;19.80;;;8.40;;
56173;SDS011;42058;52.308;20.924;2024-02-21T03:59:45;21.00;;;7.90;;
56173;SDS011;42058;52.308;20.924;2024-02-21T04:02:13;19.70;;;7.40;;
56173;SDS011;42058;52.308;20.924;2024-02-21T04:04:44;21.00;;;7.70;;
56173;SDS011;42058;52.308;20.924;2024-02-21T04:07:15;21.50;;;8.30;;
56173;SDS011;42058;52.308;20.924;2024-02-21T04:09:43;21.80;;;8.10;;
56173;SDS011;42058;52.308;20.924;2024-02-21T04:12:11;17.80;;;7.60;;
56173;SDS011;42058;52.308;20.924;2024-02-21T04:14:39;25.60;;;8.10;;
56173;SDS011;42058;52.308;20.924;2024-02-21T04:17:09;23.10;;;7.60;;
56173;SDS011;42058;52.308;20.924;2024-02-21T04:19:37;19.10;;;8.70;;
56173;SDS011;42058;52.308;20.924;2024-02-21T04:22:06;17.10;;;8.10;;
56173;SDS011;42058;52.308;20.924;2024-02-21T04:24:33;17.60;;;8.70;;
56173;SDS011;42058;52.308;20.924;2024-02-21T04:27:01;17.30;;;7.70;;
56173;SDS011;42058;52.308;20.924;2024-02-21T04:29:29;23.90;;;8.50;;
56173;SDS011;42058;52.308;20.924;2024-02-21T04:31:58;27.70;;;8.70;;
56173;SDS011;42058;52.308;20.924;2024-02-21T04:34:26;22.40;;;9.10;;
56173;SDS011;42058;52.308;20.924;2024-02-21T04:36:54;29.20;;;9.40;;
56173;SDS011;42058;52.308;20.924;2024-02-21T04:39:21;23.90;;;9.40;;
56173;SDS011;42058;52.308;20.924;2024-02-21T04:41:49;28.80;;;9.80;;
56173;SDS011;42058;52.308;20.924;2024-02-21T04:44:17;27.60;;;10.00;;
56173;SDS011;42058;52.308;20.924;2024-02-21T04:46:49;24.30;;;8.80;;
56173;SDS011;42058;52.308;20.924;2024-02-21T04:49:16;27.10;;;9.60;;
56173;SDS011;42058;52.308;20.924;2024-02-21T04:51:44;25.20;;;9.20;;
56173;SDS011;42058;52.308;20.924;2024-02-21T04:54:12;22.10;;;9.00;;
56173;SDS011;42058;52.308;20.924;2024-02-21T04:56:39;22.20;;;9.70;;
56173;SDS011;42058;52.308;20.924;2024-02-21T04:59:07;30.30;;;10.40;;
56173;SDS011;42058;52.308;20.924;2024-02-21T05:01:35;26.00;;;9.50;;
56173;SDS011;42058;52.308;20.924;2024-02-21T05:04:03;25.70;;;10.60;;
56173;SDS011;42058;52.308;20.924;2024-02-21T05:06:30;26.00;;;9.80;;
56173;SDS011;42058;52.308;20.924;2024-02-21T05:08:58;20.90;;;9.50;;
56173;SDS011;42058;52.308;20.924;2024-02-21T05:11:26;26.80;;;9.60;;
56173;SDS011;42058;52.308;20.924;2024-02-21T05:13:54;24.90;;;9.70;;
56173;SDS011;42058;52.308;20.924;2024-02-21T05:16:22;22.90;;;9.40;;
56173;SDS011;42058;52.308;20.924;2024-02-21T05:18:49;20.70;;;9.10;;
56173;SDS011;42058;52.308;20.924;2024-02-21T05:21:17;26.50;;;9.60;;
56173;SDS011;42058;52.308;20.924;2024-02-21T05:23:45;25.80;;;10.00;;
56173;SDS011;42058;52.308;20.924;2024-02-21T05:26:19;25.50;;;10.90;;
56173;SDS011;42058;52.308;20.924;2024-02-21T05:28:48;28.50;;;10.70;;
56173;SDS011;42058;52.308;20.924;2024-02-21T05:31:17;25.80;;;9.10;;
56173;SDS011;42058;52.308;20.924;2024-02-21T05:33:45;32.10;;;11.30;;
56173;SDS011;42058;52.308;20.924;2024-02-21T05:36:13;27.80;;;11.00;;
56173;SDS011;42058;52.308;20.924;2024-02-21T05:38:41;24.40;;;10.50;;
56173;SDS011;42058;52.308;20.924;2024-02-21T05:41:09;27.40;;;10.90;;
56173;SDS011;42058;52.308;20.924;2024-02-21T05:43:39;30.50;;;11.20;;
56173;SDS011;42058;52.308;20.924;2024-02-21T05:46:07;26.20;;;11.70;;
56173;SDS011;42058;52.308;20.924;2024-02-21T05:48:35;34.90;;;13.00;;
56173;SDS011;42058;52.308;20.924;2024-02-21T05:51:06;29.80;;;11.90;;
56173;SDS011;42058;52.308;20.924;2024-02-21T05:53:34;32.50;;;11.40;;
56173;SDS011;42058;52.308;20.924;2024-02-21T05:56:03;37.70;;;12.90;;
56173;SDS011;42058;52.308;20.924;2024-02-21T05:58:32;26.40;;;10.80;;
56173;SDS011;42058;52.308;20.924;2024-02-21T06:01:00;29.90;;;11.30;;
56173;SDS011;42058;52.308;20.924;2024-02-21T06:03:29;35.20;;;11.80;;
56173;SDS011;42058;52.308;20.924;2024-02-21T06:05:57;36.00;;;13.00;;
56173;SDS011;42058;52.308;20.924;2024-02-21T06:08:25;41.40;;;14.30;;
56173;SDS011;42058;52.308;20.924;2024-02-21T06:10:53;30.20;;;11.60;;
56173;SDS011;42058;52.308;20.924;2024-02-21T06:13:23;34.70;;;13.10;;
56173;SDS011;42058;52.308;20.924;2024-02-21T06:15:51;30.50;;;12.50;;
56173;SDS011;42058;52.308;20.924;2024-02-21T06:18:19;33.70;;;12.20;;
56173;SDS011;42058;52.308;20.924;2024-02-21T06:20:48;27.50;;;12.30;;
56173;SDS011;42058;52.308;20.924;2024-02-21T06:23:16;40.20;;;13.50;;
56173;SDS011;42058;52.308;20.924;2024-02-21T06:25:44;36.60;;;12.90;;
56173;SDS011;42058;52.308;20.924;2024-02-21T06:28:12;36.70;;;12.00;;
56173;SDS011;42058;52.308;20.924;2024-02-21T06:30:40;38.00;;;14.00;;
56173;SDS011;42058;52.308;20.924;2024-02-21T06:33:07;33.80;;;13.30;;
56173;SDS011;42058;52.308;20.924;2024-02-21T06:35:35;36.60;;;12.80;;
56173;SDS011;42058;52.308;20.924;2024-02-21T06:38:03;32.70;;;12.40;;
56173;SDS011;42058;52.308;20.924;2024-02-21T06:40:31;39.50;;;12.10;;
56173;SDS011;42058;52.308;20.924;2024-02-21T06:43:05;27.40;;;12.30;;
56173;SDS011;42058;52.308;20.924;2024-02-21T06:45:33;33.40;;;12.20;;
56173;SDS011;42058;52.308;20.924;2024-02-21T06:48:01;33.10;;;13.00;;
56173;SDS011;42058;52.308;20.924;2024-02-21T06:50:29;32.00;;;11.70;;
56173;SDS011;42058;52.308;20.924;2024-02-21T06:52:57;38.20;;;13.50;;
56173;SDS011;42058;52.308;20.924;2024-02-21T06:55:25;35.40;;;13.40;;
56173;SDS011;42058;52.308;20.924;2024-02-21T06:57:52;37.30;;;14.20;;
56173;SDS011;42058;52.308;20.924;2024-02-21T07:00:20;36.80;;;13.40;;
56173;SDS011;42058;52.308;20.924;2024-02-21T07:02:49;37.00;;;14.50;;
56173;SDS011;42058;52.308;20.924;2024-02-21T07:05:17;40.20;;;14.10;;
56173;SDS011;42058;52.308;20.924;2024-02-21T07:07:45;49.30;;;15.80;;
56173;SDS011;42058;52.308;20.924;2024-02-21T07:10:13;28.00;;;12.00;;
56173;SDS011;42058;52.308;20.924;2024-02-21T07:12:41;44.70;;;14.40;;
56173;SDS011;42058;52.308;20.924;2024-02-21T07:15:11;33.40;;;12.60;;
56173;SDS011;42058;52.308;20.924;2024-02-21T07:17:39;35.40;;;14.00;;
56173;SDS011;42058;52.308;20.924;2024-02-21T07:20:07;32.20;;;13.50;;
56173;SDS011;42058;52.308;20.924;2024-02-21T07:22:35;37.30;;;15.40;;
56173;SDS011;42058;52.308;20.924;2024-02-21T07:25:03;39.80;;;14.20;;
56173;SDS011;42058;52.308;20.924;2024-02-21T07:27:33;33.10;;;13.60;;
56173;SDS011;42058;52.308;20.924;2024-02-21T07:30:01;34.20;;;12.80;;
56173;SDS011;42058;52.308;20.924;2024-02-21T07:32:28;40.90;;;13.40;;
56173;SDS011;42058;52.308;20.924;2024-02-21T07:34:56;30.40;;;13.40;;
56173;SDS011;42058;52.308;20.924;2024-02-21T07:37:24;40.40;;;13.70;;
56173;SDS011;42058;52.308;20.924;2024-02-21T07:39:52;42.50;;;15.50;;
56173;SDS011;42058;52.308;20.924;2024-02-21T07:42:19;31.90;;;12.00;;
56173;SDS011;42058;52.308;20.924;2024-02-21T07:44:47;32.60;;;12.70;;
56173;SDS011;42058;52.308;20.924;2024-02-21T07:47:15;37.00;;;13.50;;
56173;SDS011;42058;52.308;20.924;2024-02-21T07:49:43;44.00;;;15.70;;
56173;SDS011;42058;52.308;20.924;2024-02-21T07:52:12;34.70;;;14.20;;
56173;SDS011;42058;52.308;20.924;2024-02-21T07:54:40;42.60;;;13.80;;
56173;SDS011;42058;52.308;20.924;2024-02-21T07:57:08;37.90;;;12.90;;
56173;SDS011;42058;52.308;20.924;2024-02-21T07:59:36;33.60;;;12.70;;
56173;SDS011;42058;52.308;20.924;2024-02-21T08:02:03;31.80;;;12.50;;
56173;SDS011;42058;52.308;20.924;2024-02-21T08:04:34;34.60;;;13.70;;
56173;SDS011;42058;52.308;20.924;2024-02-21T08:07:02;34.20;;;12.40;;
56173;SDS011;42058;52.308;20.924;2024-02-21T08:09:31;44.30;;;13.20;;
56173;SDS011;42058;52.308;20.924;2024-02-21T08:11:59;37.70;;;12.90;;
56173;SDS011;42058;52.308;20.924;2024-02-21T08:14:27;44.70;;;15.00;;
56173;SDS011;42058;52.308;20.924;2024-02-21T08:16:54;42.60;;;15.40;;
56173;SDS011;42058;52.308;20.924;2024-02-21T08:19:23;40.40;;;14.40;;
56173;SDS011;42058;52.308;20.924;2024-02-21T08:21:50;34.20;;;13.30;;
56173;SDS011;42058;52.308;20.924;2024-02-21T08:24:18;36.80;;;14.90;;
56173;SDS011;42058;52.308;20.924;2024-02-21T08:26:46;39.10;;;14.70;;
56173;SDS011;42058;52.308;20.924;2024-02-21T08:29:13;47.10;;;16.70;;
56173;SDS011;42058;52.308;20.924;2024-02-21T08:31:41;42.10;;;15.70;;
56173;SDS011;42058;52.308;20.924;2024-02-21T08:34:09;43.60;;;16.10;;
56173;SDS011;42058;52.308;20.924;2024-02-21T08:36:37;38.00;;;14.70;;
56173;SDS011;42058;52.308;20.924;2024-02-21T08:39:04;40.00;;;14.50;;
56173;SDS011;42058;52.308;20.924;2024-02-21T08:41:32;37.90;;;14.10;;
56173;SDS011;42058;52.308;20.924;2024-02-21T08:44:22;35.20;;;14.10;;
56173;SDS011;42058;52.308;20.924;2024-02-21T08:46:51;44.20;;;15.30;;
56173;SDS011;42058;52.308;20.924;2024-02-21T08:49:19;34.20;;;13.50;;
56173;SDS011;42058;52.308;20.924;2024-02-21T08:51:48;36.60;;;14.90;;
56173;SDS011;42058;52.308;20.924;2024-02-21T08:54:15;48.40;;;15.90;;
56173;SDS011;42058;52.308;20.924;2024-02-21T08:56:44;37.40;;;15.20;;
56173;SDS011;42058;52.308;20.924;2024-02-21T08:59:12;48.10;;;15.10;;
56173;SDS011;42058;52.308;20.924;2024-02-21T09:01:39;44.60;;;15.40;;
56173;SDS011;42058;52.308;20.924;2024-02-21T09:04:07;37.10;;;14.00;;
56173;SDS011;42058;52.308;20.924;2024-02-21T09:06:35;31.50;;;13.10;;
56173;SDS011;42058;52.308;20.924;2024-02-21T09:09:06;33.30;;;15.30;;
56173;SDS011;42058;52.308;20.924;2024-02-21T09:11:35;39.30;;;14.60;;
56173;SDS011;42058;52.308;20.924;2024-02-21T09:14:03;43.40;;;17.00;;
56173;SDS011;42058;52.308;20.924;2024-02-21T09:16:31;39.80;;;15.50;;
56173;SDS011;42058;52.308;20.924;2024-02-21T09:19:00;44.10;;;15.80;;
56173;SDS011;42058;52.308;20.924;2024-02-21T09:21:28;37.50;;;15.40;;
56173;SDS011;42058;52.308;20.924;2024-02-21T09:23:56;47.90;;;15.40;;
56173;SDS011;42058;52.308;20.924;2024-02-21T09:26:27;49.10;;;14.70;;
56173;SDS011;42058;52.308;20.924;2024-02-21T09:28:54;37.30;;;13.60;;
56173;SDS011;42058;52.308;20.924;2024-02-21T09:31:22;33.70;;;14.00;;
56173;SDS011;42058;52.308;20.924;2024-02-21T09:33:50;40.00;;;14.50;;
56173;SDS011;42058;52.308;20.924;2024-02-21T09:36:18;38.00;;;14.20;;
56173;SDS011;42058;52.308;20.924;2024-02-21T09:38:46;46.60;;;14.70;;
56173;SDS011;42058;52.308;20.924;2024-02-21T09:41:17;40.80;;;15.30;;
56173;SDS011;42058;52.308;20.924;2024-02-21T09:43:52;33.80;;;13.40;;
56173;SDS011;42058;52.308;20.924;2024-02-21T09:46:42;41.20;;;13.40;;
56173;SDS011;42058;52.308;20.924;2024-02-21T09:49:31;29.90;;;11.70;;
56173;SDS011;42058;52.308;20.924;2024-02-21T09:52:06;25.80;;;11.80;;
56173;SDS011;42058;52.308;20.924;2024-02-21T09:54:34;37.10;;;12.00;;
56173;SDS011;42058;52.308;20.924;2024-02-21T09:57:03;36.90;;;11.50;;
56173;SDS011;42058;52.308;20.924;2024-02-21T09:59:32;28.50;;;11.70;;
56173;SDS011;42058;52.308;20.924;2024-02-21T10:02:01;31.30;;;11.90;;
56173;SDS011;42058;52.308;20.924;2024-02-21T10:04:29;28.60;;;10.50;;
56173;SDS011;42058;52.308;20.924;2024-02-21T10:06:58;31.80;;;10.90;;
56173;SDS011;42058;52.308;20.924;2024-02-21T10:09:26;31.70;;;11.50;;
56173;SDS011;42058;52.308;20.924;2024-02-21T10:11:56;33.30;;;11.40;;
56173;SDS011;42058;52.308;20.924;2024-02-21T10:14:39;29.00;;;11.30;;
56173;SDS011;42058;52.308;20.924;2024-02-21T10:17:08;24.20;;;9.50;;
56173;SDS011;42058;52.308;20.924;2024-02-21T10:19:43;30.10;;;9.90;;
56173;SDS011;42058;52.308;20.924;2024-02-21T10:22:10;35.80;;;13.00;;
56173;SDS011;42058;52.308;20.924;2024-02-21T10:24:38;34.30;;;11.70;;
56173;SDS011;42058;52.308;20.924;2024-02-21T10:27:08;26.40;;;11.20;;
56173;SDS011;42058;52.308;20.924;2024-02-21T10:29:38;37.50;;;12.00;;
56173;SDS011;42058;52.308;20.924;2024-02-21T10:32:07;43.70;;;12.30;;
56173;SDS011;42058;52.308;20.924;2024-02-21T10:34:37;37.00;;;13.70;;
56173;SDS011;42058;52.308;20.924;2024-02-21T10:37:06;32.90;;;11.90;;
56173;SDS011;42058;52.308;20.924;2024-02-21T10:39:37;33.70;;;11.70;;
56173;SDS011;42058;52.308;20.924;2024-02-21T10:42:06;29.40;;;11.70;;
56173;SDS011;42058;52.308;20.924;2024-02-21T10:44:38;39.40;;;11.80;;
56173;SDS011;42058;52.308;20.924;2024-02-21T10:47:08;35.60;;;12.40;;
56173;SDS011;42058;52.308;20.924;2024-02-21T10:49:39;23.30;;;10.80;;
56173;SDS011;42058;52.308;20.924;2024-02-21T10:54:50;31.70;;;12.40;;
56173;SDS011;42058;52.308;20.924;2024-02-21T10:57:24;28.20;;;12.10;;
56173;SDS011;42058;52.308;20.924;2024-02-21T10:59:55;35.20;;;12.20;;
56173;SDS011;42058;52.308;20.924;2024-02-21T11:02:23;30.90;;;12.40;;
56173;SDS011;42058;52.308;20.924;2024-02-21T11:04:52;31.60;;;12.80;;
56173;SDS011;42058;52.308;20.924;2024-02-21T11:07:22;26.30;;;9.90;;
56173;SDS011;42058;52.308;20.924;2024-02-21T11:09:51;29.50;;;12.60;;
56173;SDS011;42058;52.308;20.924;2024-02-21T11:12:23;29.70;;;13.80;;
56173;SDS011;42058;52.308;20.924;2024-02-21T11:15:03;23.40;;;12.50;;
56173;SDS011;42058;52.308;20.924;2024-02-21T11:17:32;37.70;;;13.80;;
56173;SDS011;42058;52.308;20.924;2024-02-21T11:20:12;31.70;;;12.30;;
56173;SDS011;42058;52.308;20.924;2024-02-21T11:22:41;31.30;;;14.70;;
56173;SDS011;42058;52.308;20.924;2024-02-21T11:25:09;32.30;;;13.60;;
56173;SDS011;42058;52.308;20.924;2024-02-21T11:27:45;42.80;;;15.00;;
56173;SDS011;42058;52.308;20.924;2024-02-21T11:30:13;37.30;;;12.90;;
56173;SDS011;42058;52.308;20.924;2024-02-21T11:32:49;39.60;;;15.10;;
56173;SDS011;42058;52.308;20.924;2024-02-21T11:35:20;31.60;;;14.00;;
56173;SDS011;42058;52.308;20.924;2024-02-21T11:37:48;33.30;;;13.20;;
56173;SDS011;42058;52.308;20.924;2024-02-21T11:40:16;36.90;;;14.00;;
56173;SDS011;42058;52.308;20.924;2024-02-21T11:42:43;42.50;;;16.00;;
56173;SDS011;42058;52.308;20.924;2024-02-21T11:45:11;45.30;;;15.10;;
56173;SDS011;42058;52.308;20.924;2024-02-21T11:47:42;38.40;;;14.30;;
56173;SDS011;42058;52.308;20.924;2024-02-21T11:50:10;32.80;;;14.60;;
56173;SDS011;42058;52.308;20.924;2024-02-21T11:52:40;35.90;;;13.10;;
56173;SDS011;42058;52.308;20.924;2024-02-21T11:55:08;34.90;;;13.80;;
56173;SDS011;42058;52.308;20.924;2024-02-21T11:57:37;21.80;;;11.00;;
56173;SDS011;42058;52.308;20.924;2024-02-21T12:00:19;27.30;;;11.60;;
56173;SDS011;42058;52.308;20.924;2024-02-21T12:02:48;37.10;;;14.00;;
56173;SDS011;42058;52.308;20.924;2024-02-21T12:05:20;37.10;;;13.60;;
56173;SDS011;42058;52.308;20.924;2024-02-21T12:07:48;27.10;;;11.00;;
56173;SDS011;42058;52.308;20.924;2024-02-21T12:10:16;36.90;;;14.30;;
56173;SDS011;42058;52.308;20.924;2024-02-21T12:12:44;36.40;;;13.50;;
56173;SDS011;42058;52.308;20.924;2024-02-21T12:15:12;35.50;;;13.40;;
56173;SDS011;42058;52.308;20.924;2024-02-21T12:17:40;29.40;;;13.00;;
56173;SDS011;42058;52.308;20.924;2024-02-21T12:22:38;37.90;;;14.20;;
56173;SDS011;42058;52.308;20.924;2024-02-21T12:25:16;33.40;;;14.80;;
56173;SDS011;42058;52.308;20.924;2024-02-21T12:27:55;38.30;;;13.00;;
56173;SDS011;42058;52.308;20.924;2024-02-21T12:30:24;35.50;;;14.30;;
56173;SDS011;42058;52.308;20.924;2024-02-21T12:32:51;34.60;;;13.20;;
56173;SDS011;42058;52.308;20.924;2024-02-21T12:35:19;36.80;;;14.20;;
56173;SDS011;42058;52.308;20.924;2024-02-21T12:37:50;40.00;;;14.00;;
56173;SDS011;42058;52.308;20.924;2024-02-21T12:40:18;34.60;;;13.80;;
56173;SDS011;42058;52.308;20.924;2024-02-21T12:42:46;37.20;;;15.80;;
56173;SDS011;42058;52.308;20.924;2024-02-21T12:45:14;34.30;;;17.00;;
56173;SDS011;42058;52.308;20.924;2024-02-21T12:47:43;45.20;;;19.30;;
56173;SDS011;42058;52.308;20.924;2024-02-21T12:50:11;38.70;;;16.10;;
56173;SDS011;42058;52.308;20.924;2024-02-21T12:52:39;40.80;;;15.40;;
56173;SDS011;42058;52.308;20.924;2024-02-21T12:55:07;31.70;;;14.30;;
56173;SDS011;42058;52.308;20.924;2024-02-21T12:57:38;42.00;;;13.50;;
56173;SDS011;42058;52.308;20.924;2024-02-21T13:00:08;33.90;;;13.90;;
56173;SDS011;42058;52.308;20.924;2024-02-21T13:02:38;34.40;;;15.30;;
56173;SDS011;42058;52.308;20.924;2024-02-21T13:05:09;34.10;;;14.20;;
56173;SDS011;42058;52.308;20.924;2024-02-21T13:07:37;31.40;;;13.30;;
56173;SDS011;42058;52.308;20.924;2024-02-21T13:10:05;34.10;;;14.40;;
56173;SDS011;42058;52.308;20.924;2024-02-21T13:12:35;39.90;;;14.80;;
56173;SDS011;42058;52.308;20.924;2024-02-21T13:15:03;41.70;;;14.80;;
56173;SDS011;42058;52.308;20.924;2024-02-21T13:17:32;33.60;;;15.40;;
56173;SDS011;42058;52.308;20.924;2024-02-21T13:20:02;35.90;;;14.50;;
56173;SDS011;42058;52.308;20.924;2024-02-21T13:22:30;38.90;;;14.10;;
56173;SDS011;42058;52.308;20.924;2024-02-21T13:24:58;28.00;;;11.90;;
56173;SDS011;42058;52.308;20.924;2024-02-21T13:27:27;31.80;;;13.40;;
56173;SDS011;42058;52.308;20.924;2024-02-21T13:29:55;33.90;;;14.10;;
56173;SDS011;42058;52.308;20.924;2024-02-21T13:32:23;33.10;;;14.10;;
56173;SDS011;42058;52.308;20.924;2024-02-21T13:34:51;32.60;;;13.50;;
56173;SDS011;42058;52.308;20.924;2024-02-21T13:37:21;28.20;;;13.80;;
56173;SDS011;42058;52.308;20.924;2024-02-21T13:39:49;24.60;;;11.60;;
56173;SDS011;42058;52.308;20.924;2024-02-21T13:42:17;27.80;;;11.50;;
56173;SDS011;42058;52.308;20.924;2024-02-21T13:44:46;27.50;;;12.70;;
56173;SDS011;42058;52.308;20.924;2024-02-21T13:47:14;28.80;;;12.90;;
56173;SDS011;42058;52.308;20.924;2024-02-21T13:49:43;23.70;;;11.80;;
56173;SDS011;42058;52.308;20.924;2024-02-21T13:52:11;25.70;;;10.70;;
56173;SDS011;42058;52.308;20.924;2024-02-21T13:54:42;30.50;;;11.80;;
56173;SDS011;42058;52.308;20.924;2024-02-21T13:57:12;26.60;;;11.10;;
56173;SDS011;42058;52.308;20.924;2024-02-21T13:59:40;33.90;;;13.60;;
56173;SDS011;42058;52.308;20.924;2024-02-21T14:02:08;32.50;;;11.80;;
56173;SDS011;42058;52.308;20.924;2024-02-21T14:04:36;26.10;;;11.20;;
56173;SDS011;42058;52.308;20.924;2024-02-21T14:07:04;28.60;;;11.50;;
56173;SDS011;42058;52.308;20.924;2024-02-21T14:09:32;26.10;;;11.20;;
56173;SDS011;42058;52.308;20.924;2024-02-21T14:12:02;37.70;;;12.50;;
56173;SDS011;42058;52.308;20.924;2024-02-21T14:14:30;27.20;;;11.70;;
56173;SDS011;42058;52.308;20.924;2024-02-21T14:16:59;32.20;;;11.80;;
56173;SDS011;42058;52.308;20.924;2024-02-21T14:19:28;28.20;;;11.90;;
56173;SDS011;42058;52.308;20.924;2024-02-21T14:22:00;27.20;;;11.90;;
56173;SDS011;42058;52.308;20.924;2024-02-21T14:24:29;27.00;;;11.80;;
56173;SDS011;42058;52.308;20.924;2024-02-21T14:26:57;20.40;;;9.60;;
56173;SDS011;42058;52.308;20.924;2024-02-21T14:29:25;22.60;;;11.00;;
56173;SDS011;42058;52.308;20.924;2024-02-21T14:31:53;27.40;;;10.40;;